Barrigada, Guam
Current Conditions -  °F | °C
As of 1:54 PM on Thursday 29 Jan 2015 (Local Time) from PGUM Reporting Station
Scattered Clouds Scattered Clouds  
Wind Chill: 86°   Ceiling: Unl
Heat Index: 92°   Visibility: 10mi
Dew Point: 72°   Wind: 8mph
Humidity: 63%   Direction: 110°ESE
Pressure: 29.83"   Gusts: NA
Location:  13.47°N, 144.8°E
Report Text: PGUM 290354Z 11007KT 070V130 10SM SCT030 30/22 A2983 RMK AO2 SLP092 P0001 T03000222
Loading
Personal Weather Stations






























Interactive Weather Map New forecast layout! Learn more

10-Day Weather Forecast

Advertisements
Track Severe Weather on mobile